createdAt,value
2017-04-10T00:00:01.379Z,4.5
2017-04-10T00:00:20.013Z,4.5
2017-04-10T00:00:38.647Z,4.5
2017-04-10T00:00:57.276Z,4.5
2017-04-10T00:01:15.912Z,4.5
2017-04-10T00:01:34.551Z,4.4
2017-04-10T00:01:53.179Z,4.4
2017-04-10T00:02:11.808Z,4.4
2017-04-10T00:02:30.454Z,4.4
2017-04-10T00:02:49.107Z,4.4
2017-04-10T00:03:07.743Z,4.4
2017-04-10T00:03:26.402Z,4.4
2017-04-10T00:03:45.036Z,4.4
2017-04-10T00:04:03.671Z,4.4
2017-04-10T00:04:22.302Z,4.4
2017-04-10T00:04:40.959Z,4.4
2017-04-10T00:04:59.589Z,4.4
2017-04-10T00:05:18.220Z,4.4
2017-04-10T00:05:36.852Z,4.3
2017-04-10T00:05:55.495Z,4.3
2017-04-10T00:06:14.128Z,4.3
2017-04-10T00:06:32.757Z,4.3
2017-04-10T00:06:51.406Z,4.3
2017-04-10T00:07:10.034Z,4.2
2017-04-10T00:07:28.665Z,4.2
2017-04-10T00:07:47.296Z,4.2
2017-04-10T00:08:05.934Z,4.2
2017-04-10T00:08:24.567Z,4.2
2017-04-10T00:08:43.203Z,4.2
2017-04-10T00:09:01.836Z,4.3
2017-04-10T00:09:20.489Z,4.3
2017-04-10T00:09:39.128Z,4.3
2017-04-10T00:09:57.762Z,4.2
2017-04-10T00:10:16.394Z,4.2
2017-04-10T00:10:35.033Z,4.2
2017-04-10T00:10:53.668Z,4.2
2017-04-10T00:11:12.298Z,4.2
2017-04-10T00:11:30.934Z,4.3
2017-04-10T00:11:49.578Z,4.3
2017-04-10T00:12:08.214Z,4.3
2017-04-10T00:12:26.852Z,4.3
2017-04-10T00:12:45.508Z,4.3
2017-04-10T00:13:04.141Z,4.3
2017-04-10T00:13:22.772Z,4.3
2017-04-10T00:13:41.398Z,4.3
2017-04-10T00:14:00.056Z,4.3
2017-04-10T00:14:18.687Z,4.3
2017-04-10T00:14:37.314Z,4.3
2017-04-10T00:14:55.941Z,4.3
2017-04-10T00:15:14.571Z,4.3
2017-04-10T00:15:33.205Z,4.4
2017-04-10T00:15:51.840Z,4.4
2017-04-10T00:16:10.498Z,4.4
2017-04-10T00:16:29.135Z,4.4
2017-04-10T00:16:47.762Z,4.3
2017-04-10T00:17:06.392Z,4.3
2017-04-10T00:17:25.022Z,4.3
2017-04-10T00:17:43.651Z,4.3
2017-04-10T00:18:02.280Z,4.3
2017-04-10T00:18:20.910Z,4.3
2017-04-10T00:18:39.540Z,4.3
2017-04-10T00:18:58.173Z,4.3
2017-04-10T00:19:16.825Z,4.3
2017-04-10T00:19:35.472Z,4.3
2017-04-10T00:19:54.105Z,4.3
2017-04-10T00:20:12.740Z,4.2
2017-04-10T00:20:31.371Z,4.2
2017-04-10T00:20:50.004Z,4.3
2017-04-10T00:21:08.635Z,4.3
2017-04-10T00:21:27.267Z,4.3
2017-04-10T00:21:45.903Z,4.3
2017-04-10T00:22:04.542Z,4.3
2017-04-10T00:22:23.175Z,4.3
2017-04-10T00:22:41.808Z,4.3
2017-04-10T00:23:00.453Z,4.3
2017-04-10T00:23:19.090Z,4.3
2017-04-10T00:23:37.725Z,4.3
2017-04-10T00:23:56.357Z,4.3
2017-04-10T00:24:14.992Z,4.3
2017-04-10T00:24:33.652Z,4.3
2017-04-10T00:24:52.286Z,4.3
2017-04-10T00:25:10.926Z,4.3
2017-04-10T00:25:29.554Z,4.3
2017-04-10T00:25:48.182Z,4.4
2017-04-10T00:26:06.812Z,4.4
2017-04-10T00:26:25.465Z,4.4
2017-04-10T00:26:44.101Z,4.4
2017-04-10T00:27:02.735Z,4.4
2017-04-10T00:27:21.358Z,4.4
2017-04-10T00:27:39.986Z,4.4
2017-04-10T00:27:58.626Z,4.4
2017-04-10T00:28:17.257Z,4.5
2017-04-10T00:28:35.890Z,4.5
2017-04-10T00:28:54.523Z,4.5
2017-04-10T00:29:13.151Z,4.5
2017-04-10T00:29:31.788Z,4.5
2017-04-10T00:29:50.467Z,4.5
2017-04-10T00:30:09.097Z,4.5
2017-04-10T00:30:27.730Z,4.4
2017-04-10T00:30:46.361Z,4.4
2017-04-10T00:31:04.997Z,4.4
2017-04-10T00:31:23.633Z,4.4
2017-04-10T00:31:42.274Z,4.4
2017-04-10T00:32:00.907Z,4.4
2017-04-10T00:32:19.542Z,4.4
2017-04-10T00:32:38.178Z,4.4
2017-04-10T00:32:56.813Z,4.4
2017-04-10T00:33:15.478Z,4.3
2017-04-10T00:33:34.110Z,4.3
2017-04-10T00:33:52.745Z,4.3
2017-04-10T00:34:11.381Z,4.3
2017-04-10T00:34:30.011Z,4.3
2017-04-10T00:34:48.675Z,4.3
2017-04-10T00:35:07.321Z,4.3
2017-04-10T00:35:25.956Z,4.2
2017-04-10T00:35:44.590Z,4.2
2017-04-10T00:36:03.222Z,4.2
2017-04-10T00:36:21.855Z,4.2
2017-04-10T00:36:40.511Z,4.2
2017-04-10T00:36:59.149Z,4.1
2017-04-10T00:37:17.810Z,4.1
2017-04-10T00:37:36.445Z,4.1
2017-04-10T00:37:55.073Z,4.1
2017-04-10T00:38:13.707Z,4.1
2017-04-10T00:38:32.339Z,4.1
2017-04-10T00:38:50.980Z,4.1
2017-04-10T00:39:09.610Z,4.1
2017-04-10T00:39:28.241Z,4.1
2017-04-10T00:39:46.871Z,4.1
2017-04-10T00:40:05.532Z,4.1
2017-04-10T00:40:24.191Z,4.1
2017-04-10T00:40:42.830Z,4
2017-04-10T00:41:01.459Z,4.1
2017-04-10T00:41:20.086Z,4.1
2017-04-10T00:41:38.756Z,4.1
2017-04-10T00:41:57.392Z,4.1
2017-04-10T00:42:16.026Z,4.1
2017-04-10T00:42:34.655Z,4
2017-04-10T00:42:53.284Z,4
2017-04-10T00:43:11.917Z,4
2017-04-10T00:43:30.576Z,4
2017-04-10T00:43:49.206Z,4.1
2017-04-10T00:44:07.838Z,4
2017-04-10T00:44:26.470Z,4.1
2017-04-10T00:44:45.102Z,4.1
2017-04-10T00:45:03.745Z,4
2017-04-10T00:45:22.380Z,4
2017-04-10T00:45:41.015Z,4
2017-04-10T00:45:59.645Z,4
2017-04-10T00:46:18.280Z,4
2017-04-10T00:46:36.913Z,4
2017-04-10T00:46:55.568Z,4
2017-04-10T00:47:14.195Z,4
2017-04-10T00:47:32.827Z,4
2017-04-10T00:47:51.461Z,4
2017-04-10T00:48:10.092Z,4
2017-04-10T00:48:28.729Z,4
2017-04-10T00:48:47.366Z,4
2017-04-10T00:49:05.997Z,4
2017-04-10T00:49:24.631Z,4
2017-04-10T00:49:43.260Z,4
2017-04-10T00:50:01.890Z,4
2017-04-10T00:50:20.557Z,4.1
2017-04-10T00:50:39.192Z,4.1
2017-04-10T00:50:57.831Z,4.1
2017-04-10T00:51:16.462Z,4.1
2017-04-10T00:51:35.122Z,4.1
2017-04-10T00:51:53.766Z,4.1
2017-04-10T00:52:12.402Z,4.1
2017-04-10T00:52:31.055Z,4.1
2017-04-10T00:52:49.689Z,4.1
2017-04-10T00:53:08.326Z,4.1
2017-04-10T00:53:26.949Z,4.1
2017-04-10T00:53:45.598Z,4.1
2017-04-10T00:54:04.228Z,4.1
2017-04-10T00:54:22.857Z,4.1
2017-04-10T00:54:41.487Z,4.1
2017-04-10T00:55:00.113Z,4.1
2017-04-10T00:55:18.766Z,4.1
2017-04-10T00:55:37.394Z,4.1
2017-04-10T00:55:56.023Z,4.2
2017-04-10T00:56:14.680Z,4.2
2017-04-10T00:56:33.304Z,4.2
2017-04-10T00:56:51.936Z,4.2
2017-04-10T00:57:10.582Z,4.2
2017-04-10T00:57:29.211Z,4.2
2017-04-10T00:57:47.843Z,4.2
2017-04-10T00:58:06.475Z,4.2
2017-04-10T00:58:25.104Z,4.2
2017-04-10T00:58:43.764Z,4.3
2017-04-10T00:59:02.403Z,4.4
2017-04-10T00:59:21.037Z,4.4
2017-04-10T00:59:39.670Z,4.4
2017-04-10T00:59:58.305Z,4.5
2017-04-10T01:00:16.939Z,4.5
2017-04-10T01:00:35.583Z,4.4
2017-04-10T01:00:54.218Z,4.5
2017-04-10T01:01:12.851Z,4.4
2017-04-10T01:01:31.494Z,4.4
2017-04-10T01:01:50.131Z,4.4
2017-04-10T01:02:08.788Z,4.4
2017-04-10T01:02:27.416Z,4.4
2017-04-10T01:02:46.046Z,4.4
2017-04-10T01:03:04.681Z,4.4
2017-04-10T01:03:23.313Z,4.4
2017-04-10T01:03:41.945Z,4.4
2017-04-10T01:04:00.585Z,4.4
2017-04-10T01:04:19.215Z,4.4
2017-04-10T01:04:37.851Z,4.4
2017-04-10T01:04:56.488Z,4.4
2017-04-10T01:05:15.121Z,4.4
2017-04-10T01:05:33.784Z,4.4
2017-04-10T01:05:52.418Z,4.5
2017-04-10T01:06:11.051Z,4.5
2017-04-10T01:06:29.694Z,4.6
2017-04-10T01:06:48.345Z,4.6
2017-04-10T01:07:06.978Z,4.6
2017-04-10T01:07:25.611Z,4.6
2017-04-10T01:07:44.268Z,4.6
2017-04-10T01:08:02.898Z,4.6
2017-04-10T01:08:21.526Z,4.7
2017-04-10T01:08:40.168Z,4.7
2017-04-10T01:08:58.819Z,4.7
2017-04-10T01:09:17.448Z,4.7
2017-04-10T01:09:36.078Z,4.8
2017-04-10T01:09:54.706Z,4.8
2017-04-10T01:10:13.334Z,4.9
2017-04-10T01:10:31.962Z,4.9
2017-04-10T01:10:50.592Z,5
2017-04-10T01:11:09.233Z,5
2017-04-10T01:11:27.868Z,5
2017-04-10T01:11:46.502Z,5
2017-04-10T01:12:05.149Z,5.1
2017-04-10T01:12:23.802Z,5.1
2017-04-10T01:12:42.431Z,5.1
2017-04-10T01:13:01.065Z,5.1
2017-04-10T01:13:19.697Z,5.1
2017-04-10T01:13:38.327Z,5.1
2017-04-10T01:13:56.964Z,5.1
2017-04-10T01:14:15.595Z,5.2
2017-04-10T01:14:34.227Z,5.2
2017-04-10T01:14:52.895Z,5.2
2017-04-10T01:15:11.530Z,5.2
2017-04-10T01:15:30.179Z,5.2
2017-04-10T01:15:48.812Z,5.3
2017-04-10T01:16:07.443Z,5.3
2017-04-10T01:16:26.080Z,5.4
2017-04-10T01:16:44.708Z,5.5
2017-04-10T01:17:03.342Z,5.5
2017-04-10T01:17:22.000Z,5.5
2017-04-10T01:17:40.632Z,5.5
2017-04-10T01:17:59.264Z,5.5
2017-04-10T01:18:17.893Z,5.5
2017-04-10T01:18:36.528Z,5.5
2017-04-10T01:18:55.173Z,5.5
2017-04-10T01:19:13.808Z,5.5
2017-04-10T01:19:32.438Z,5.5
2017-04-10T01:19:51.062Z,5.6
2017-04-10T01:20:09.695Z,5.6
2017-04-10T01:20:28.333Z,5.6
2017-04-10T01:20:46.963Z,5.7
2017-04-10T01:21:05.599Z,5.7
2017-04-10T01:21:24.232Z,5.7
2017-04-10T01:21:42.869Z,5.7
2017-04-10T01:22:01.503Z,5.7
2017-04-10T01:22:20.156Z,5.7
2017-04-10T01:22:38.819Z,5.7
2017-04-10T01:22:57.458Z,5.7
2017-04-10T01:23:16.095Z,5.7
2017-04-10T01:23:34.726Z,5.7
2017-04-10T01:23:53.359Z,5.8
2017-04-10T01:24:11.985Z,5.9
2017-04-10T01:24:30.614Z,5.9
2017-04-10T01:24:49.246Z,5.9
2017-04-10T01:25:07.873Z,5.9
2017-04-10T01:25:26.501Z,5.9
2017-04-10T01:25:45.144Z,5.9
2017-04-10T01:26:03.776Z,5.9
2017-04-10T01:26:22.405Z,5.8
2017-04-10T01:26:41.037Z,5.9
2017-04-10T01:26:59.674Z,5.9
2017-04-10T01:27:18.306Z,5.9
2017-04-10T01:27:36.936Z,5.9
2017-04-10T01:27:55.589Z,5.9
2017-04-10T01:28:14.220Z,5.9
2017-04-10T01:28:32.847Z,5.9
2017-04-10T01:28:51.477Z,5.9
2017-04-10T01:29:10.122Z,5.9
2017-04-10T01:29:28.756Z,5.9
2017-04-10T01:29:47.390Z,5.8
2017-04-10T01:30:06.021Z,5.8
2017-04-10T01:30:24.648Z,5.8
2017-04-10T01:30:43.284Z,5.8
2017-04-10T01:31:01.919Z,5.8
2017-04-10T01:31:20.557Z,5.8
2017-04-10T01:31:39.192Z,5.8
2017-04-10T01:31:57.831Z,5.8
2017-04-10T01:32:16.464Z,5.8
2017-04-10T01:32:35.121Z,5.8
2017-04-10T01:32:53.753Z,5.8
2017-04-10T01:33:12.390Z,5.7
2017-04-10T01:33:31.025Z,5.7
2017-04-10T01:33:49.656Z,5.7
2017-04-10T01:34:08.284Z,5.7
2017-04-10T01:34:26.918Z,5.7
2017-04-10T01:34:45.547Z,5.7
2017-04-10T01:35:04.176Z,5.7
2017-04-10T01:35:22.815Z,5.7
2017-04-10T01:35:41.456Z,5.7
2017-04-10T01:36:00.104Z,5.7
2017-04-10T01:36:18.740Z,5.6
2017-04-10T01:36:37.364Z,5.6
2017-04-10T01:36:55.991Z,5.6
2017-04-10T01:37:14.626Z,5.6
2017-04-10T01:37:33.255Z,5.5
2017-04-10T01:37:51.889Z,5.5
2017-04-10T01:38:10.551Z,5.5
2017-04-10T01:38:29.234Z,5.5
2017-04-10T01:38:47.868Z,5.5
2017-04-10T01:39:06.499Z,5.5
2017-04-10T01:39:25.152Z,5.4
2017-04-10T01:39:43.778Z,5.4
2017-04-10T01:40:02.412Z,5.4
2017-04-10T01:40:21.044Z,5.3
2017-04-10T01:40:39.676Z,5.3
2017-04-10T01:40:58.309Z,5.3
2017-04-10T01:41:16.936Z,5.2
2017-04-10T01:41:35.565Z,5.2
2017-04-10T01:41:54.197Z,5.2
2017-04-10T01:42:12.831Z,5.1
2017-04-10T01:42:31.460Z,5.1
2017-04-10T01:42:50.108Z,5.1
2017-04-10T01:43:08.735Z,5.1
2017-04-10T01:43:27.366Z,5
2017-04-10T01:43:46.011Z,5
2017-04-10T01:44:04.645Z,5
2017-04-10T01:44:23.287Z,4.9
2017-04-10T01:44:41.916Z,4.9
2017-04-10T01:45:00.547Z,4.9
2017-04-10T01:45:19.177Z,4.9
2017-04-10T01:45:37.804Z,4.8
2017-04-10T01:45:56.437Z,4.8
2017-04-10T01:46:15.088Z,4.8
2017-04-10T01:46:33.720Z,4.8
2017-04-10T01:46:52.349Z,4.8
2017-04-10T01:47:10.981Z,4.8
2017-04-10T01:47:29.610Z,4.8
2017-04-10T01:47:48.238Z,4.8
2017-04-10T01:48:06.869Z,4.8
2017-04-10T01:48:25.500Z,4.8
2017-04-10T01:48:44.132Z,4.8
2017-04-10T01:49:02.792Z,4.8
2017-04-10T01:49:21.421Z,4.8
2017-04-10T01:49:40.074Z,4.8
2017-04-10T01:49:58.703Z,4.8
2017-04-10T01:50:17.339Z,4.8
2017-04-10T01:50:35.971Z,4.8
2017-04-10T01:50:54.606Z,4.8
2017-04-10T01:51:13.239Z,4.8
2017-04-10T01:51:31.879Z,4.8
2017-04-10T01:51:50.510Z,4.8
2017-04-10T01:52:09.141Z,4.8
2017-04-10T01:52:27.769Z,4.8
2017-04-10T01:52:46.415Z,4.8
2017-04-10T01:53:05.071Z,4.9
2017-04-10T01:53:23.719Z,4.9
2017-04-10T01:53:42.350Z,4.9
2017-04-10T01:54:00.977Z,4.9
2017-04-10T01:54:19.614Z,4.8
2017-04-10T01:54:38.242Z,4.8
2017-04-10T01:54:56.874Z,4.8
2017-04-10T01:55:15.503Z,4.8
2017-04-10T01:55:34.144Z,4.8
2017-04-10T01:55:52.776Z,4.8
2017-04-10T01:56:11.409Z,4.8
2017-04-10T01:56:30.067Z,4.8
2017-04-10T01:56:48.697Z,4.8
2017-04-10T01:57:07.328Z,4.8
2017-04-10T01:57:25.961Z,4.9
2017-04-10T01:57:44.594Z,4.9
2017-04-10T01:58:03.230Z,4.9
2017-04-10T01:58:21.860Z,4.9
2017-04-10T01:58:40.489Z,4.9
2017-04-10T01:58:59.121Z,5
2017-04-10T01:59:17.753Z,5
2017-04-10T01:59:36.412Z,5
2017-04-10T01:59:55.063Z,5
2017-04-10T02:00:13.693Z,5
2017-04-10T02:00:32.330Z,5.1
2017-04-10T02:00:50.960Z,5.1
2017-04-10T02:01:09.592Z,5.1
2017-04-10T02:01:28.221Z,5.2
2017-04-10T02:01:46.847Z,5.2
2017-04-10T02:02:05.476Z,5.2
2017-04-10T02:02:24.112Z,5.2
2017-04-10T02:02:42.749Z,5.3
2017-04-10T02:03:01.383Z,5.4
2017-04-10T02:03:20.033Z,5.5
2017-04-10T02:03:38.664Z,5.6
2017-04-10T02:03:57.294Z,5.7
2017-04-10T02:04:15.925Z,5.8
2017-04-10T02:04:34.558Z,5.9
2017-04-10T02:04:53.195Z,6
2017-04-10T02:05:11.827Z,6.1
2017-04-10T02:05:30.460Z,6.1
2017-04-10T02:05:49.092Z,6.1
2017-04-10T02:06:07.726Z,6.1
2017-04-10T02:06:26.363Z,6.2
2017-04-10T02:06:45.013Z,6.2
2017-04-10T02:07:03.644Z,6.3
2017-04-10T02:07:22.271Z,6.3
2017-04-10T02:07:40.901Z,6.3
2017-04-10T02:07:59.534Z,6.3
2017-04-10T02:08:18.165Z,6.2
2017-04-10T02:08:36.815Z,6.2
2017-04-10T02:08:55.449Z,6.2
2017-04-10T02:09:14.081Z,6.3
2017-04-10T02:09:32.711Z,6.3
2017-04-10T02:09:51.343Z,6.3
2017-04-10T02:10:10.021Z,6.3
2017-04-10T02:10:28.655Z,6.3
2017-04-10T02:10:47.284Z,6.3
2017-04-10T02:11:05.907Z,6.3
2017-04-10T02:11:24.537Z,6.3
2017-04-10T02:11:43.174Z,6.3
2017-04-10T02:12:01.805Z,6.3
2017-04-10T02:12:20.434Z,6.3
2017-04-10T02:12:39.071Z,6.3
2017-04-10T02:12:57.706Z,6.3
2017-04-10T02:13:16.345Z,6.3
2017-04-10T02:13:35.000Z,6.4
2017-04-10T02:13:53.633Z,6.4
2017-04-10T02:14:12.261Z,6.5
2017-04-10T02:14:30.890Z,6.5
2017-04-10T02:14:49.523Z,6.5
2017-04-10T02:15:08.156Z,6.5
2017-04-10T02:15:26.791Z,6.5
2017-04-10T02:15:45.421Z,6.5
2017-04-10T02:16:04.060Z,6.5
2017-04-10T02:16:22.694Z,6.5
2017-04-10T02:16:41.337Z,6.5
2017-04-10T02:16:59.992Z,6.5
2017-04-10T02:17:18.617Z,6.5
2017-04-10T02:17:37.248Z,6.5
2017-04-10T02:17:55.879Z,6.5
2017-04-10T02:18:14.507Z,6.5
2017-04-10T02:18:33.133Z,6.5
2017-04-10T02:18:51.765Z,6.6
2017-04-10T02:19:10.399Z,6.6
2017-04-10T02:19:29.061Z,6.6
2017-04-10T02:19:47.694Z,6.7
2017-04-10T02:20:06.328Z,6.7
2017-04-10T02:20:24.977Z,6.7
2017-04-10T02:20:43.622Z,6.8
2017-04-10T02:21:02.257Z,6.8
2017-04-10T02:21:20.896Z,6.8
2017-04-10T02:21:39.533Z,6.8
2017-04-10T02:21:58.169Z,6.8
2017-04-10T02:22:16.811Z,6.8
2017-04-10T02:22:35.440Z,6.8
2017-04-10T02:22:54.070Z,6.7
2017-04-10T02:23:12.697Z,6.7
2017-04-10T02:23:31.332Z,6.7
2017-04-10T02:23:50.019Z,6.7
2017-04-10T02:24:08.653Z,6.8
2017-04-10T02:24:27.290Z,6.8
2017-04-10T02:24:45.919Z,6.8
2017-04-10T02:25:04.548Z,6.8
2017-04-10T02:25:23.177Z,6.8
2017-04-10T02:25:41.806Z,6.8
2017-04-10T02:26:00.442Z,6.8
2017-04-10T02:26:19.071Z,6.8
2017-04-10T02:26:37.698Z,6.8
2017-04-10T02:26:56.333Z,6.8
2017-04-10T02:27:14.992Z,6.8
2017-04-10T02:27:33.621Z,6.8
2017-04-10T02:27:52.256Z,6.8
2017-04-10T02:28:10.887Z,6.8
2017-04-10T02:28:29.524Z,6.8
2017-04-10T02:28:48.160Z,6.8
2017-04-10T02:29:06.823Z,6.8
2017-04-10T02:29:25.461Z,6.8
2017-04-10T02:29:44.104Z,6.8
2017-04-10T02:30:02.741Z,6.8
2017-04-10T02:30:21.372Z,6.7
2017-04-10T02:30:40.034Z,6.7
2017-04-10T02:30:58.673Z,6.7
2017-04-10T02:31:17.332Z,6.7
2017-04-10T02:31:35.967Z,6.7
2017-04-10T02:31:54.601Z,6.6
2017-04-10T02:32:13.237Z,6.6
2017-04-10T02:32:31.867Z,6.6
2017-04-10T02:32:50.496Z,6.6
2017-04-10T02:33:09.128Z,6.6
2017-04-10T02:33:27.765Z,6.6
2017-04-10T02:33:46.399Z,6.6
2017-04-10T02:34:05.056Z,6.6
2017-04-10T02:34:23.689Z,6.6
2017-04-10T02:34:42.318Z,6.6
2017-04-10T02:35:00.951Z,6.5
2017-04-10T02:35:19.582Z,6.5
2017-04-10T02:35:38.213Z,6.5
2017-04-10T02:35:56.841Z,6.4
2017-04-10T02:36:15.475Z,6.4
2017-04-10T02:36:34.147Z,6.3
2017-04-10T02:36:52.777Z,6.3
2017-04-10T02:37:11.410Z,6.3
2017-04-10T02:37:30.073Z,6.2
2017-04-10T02:37:48.712Z,6.2
2017-04-10T02:38:07.345Z,6.1
2017-04-10T02:38:25.978Z,6.1
2017-04-10T02:38:44.610Z,6.1
2017-04-10T02:39:03.256Z,6
2017-04-10T02:39:21.888Z,6
2017-04-10T02:39:40.517Z,5.9
2017-04-10T02:39:59.145Z,5.9
2017-04-10T02:40:17.776Z,5.9
2017-04-10T02:40:36.411Z,5.8
2017-04-10T02:40:55.067Z,5.8
2017-04-10T02:41:13.696Z,5.8
2017-04-10T02:41:32.333Z,5.7
2017-04-10T02:41:50.989Z,5.7
2017-04-10T02:42:09.622Z,5.7
2017-04-10T02:42:28.257Z,5.6
2017-04-10T02:42:46.893Z,5.6
2017-04-10T02:43:05.526Z,5.6
2017-04-10T02:43:24.159Z,5.6
2017-04-10T02:43:42.789Z,5.7
2017-04-10T02:44:01.419Z,5.7
2017-04-10T02:44:20.077Z,5.7
2017-04-10T02:44:38.708Z,5.7
2017-04-10T02:44:57.339Z,5.7
2017-04-10T02:45:15.977Z,5.7
2017-04-10T02:45:34.609Z,5.7
2017-04-10T02:45:53.243Z,5.7
2017-04-10T02:46:11.874Z,5.6
2017-04-10T02:46:30.499Z,5.6
2017-04-10T02:46:49.130Z,5.6
2017-04-10T02:47:07.794Z,5.6
2017-04-10T02:47:26.430Z,5.6
2017-04-10T02:47:45.089Z,5.6
2017-04-10T02:48:03.721Z,5.6
2017-04-10T02:48:22.350Z,5.5
2017-04-10T02:48:40.981Z,5.5
2017-04-10T02:48:59.615Z,5.5
2017-04-10T02:49:18.253Z,5.5
2017-04-10T02:49:36.884Z,5.5
2017-04-10T02:49:55.519Z,5.5
2017-04-10T02:50:14.157Z,5.5
2017-04-10T02:50:32.784Z,5.5
2017-04-10T02:50:51.412Z,5.5
2017-04-10T02:51:10.064Z,5.4
2017-04-10T02:51:28.694Z,5.4
2017-04-10T02:51:47.327Z,5.4
2017-04-10T02:52:05.955Z,5.4
2017-04-10T02:52:24.589Z,5.4
2017-04-10T02:52:43.218Z,5.4
2017-04-10T02:53:01.846Z,5.4
2017-04-10T02:53:20.479Z,5.4
2017-04-10T02:53:39.110Z,5.4
2017-04-10T02:53:57.744Z,5.4
2017-04-10T02:54:16.392Z,5.4
2017-04-10T02:54:35.050Z,5.4
2017-04-10T02:54:53.679Z,5.4
2017-04-10T02:55:12.321Z,5.4
2017-04-10T02:55:30.957Z,5.3
2017-04-10T02:55:49.590Z,5.4
2017-04-10T02:56:08.225Z,5.4
2017-04-10T02:56:26.858Z,5.4
2017-04-10T02:56:45.488Z,5.4
2017-04-10T02:57:04.126Z,5.4
2017-04-10T02:57:22.760Z,5.4
2017-04-10T02:57:41.419Z,5.4
2017-04-10T02:58:00.064Z,5.4
2017-04-10T02:58:18.698Z,5.4
2017-04-10T02:58:37.328Z,5.5
2017-04-10T02:58:55.960Z,5.5
2017-04-10T02:59:14.583Z,5.4
2017-04-10T02:59:33.216Z,5.4
2017-04-10T02:59:51.851Z,5.4
2017-04-10T03:00:10.484Z,5.4
2017-04-10T03:00:29.118Z,5.4
2017-04-10T03:00:47.748Z,5.4
2017-04-10T03:01:06.380Z,5.5
2017-04-10T03:01:25.043Z,5.5
2017-04-10T03:01:43.677Z,5.5
2017-04-10T03:02:02.306Z,5.4
2017-04-10T03:02:20.933Z,5.5
2017-04-10T03:02:39.565Z,5.5
2017-04-10T03:02:58.205Z,5.5
2017-04-10T03:03:16.838Z,5.5
2017-04-10T03:03:35.468Z,5.5
2017-04-10T03:03:54.097Z,5.5
2017-04-10T03:04:12.728Z,5.4
2017-04-10T03:04:31.367Z,5.5
2017-04-10T03:04:50.025Z,5.4
2017-04-10T03:05:08.656Z,5.5
2017-04-10T03:05:27.283Z,5.5
2017-04-10T03:05:45.912Z,5.5
2017-04-10T03:06:04.547Z,5.5
2017-04-10T03:06:23.181Z,5.5
2017-04-10T03:06:41.809Z,5.5
2017-04-10T03:07:00.440Z,5.6
2017-04-10T03:07:19.073Z,5.5
2017-04-10T03:07:37.705Z,5.5
2017-04-10T03:07:56.331Z,5.5
2017-04-10T03:08:15.018Z,5.5
2017-04-10T03:08:33.647Z,5.5
2017-04-10T03:08:52.285Z,5.4
2017-04-10T03:09:10.918Z,5.4
2017-04-10T03:09:29.556Z,5.4
2017-04-10T03:09:48.221Z,5.4
2017-04-10T03:10:06.859Z,5.4
2017-04-10T03:10:25.493Z,5.5
2017-04-10T03:10:44.123Z,5.5
2017-04-10T03:11:02.749Z,5.4
2017-04-10T03:11:21.380Z,5.4
2017-04-10T03:11:40.022Z,5.4
2017-04-10T03:11:58.652Z,5.4
2017-04-10T03:12:17.280Z,5.4
2017-04-10T03:12:35.911Z,5.3
2017-04-10T03:12:54.540Z,5.3
2017-04-10T03:13:13.203Z,5.3
2017-04-10T03:13:31.857Z,5.3
2017-04-10T03:13:50.490Z,5.3
2017-04-10T03:14:09.121Z,5.3
2017-04-10T03:14:27.752Z,5.3
2017-04-10T03:14:46.384Z,5.3
2017-04-10T03:15:05.024Z,5.3
2017-04-10T03:15:23.655Z,5.3
2017-04-10T03:15:42.289Z,5.3
2017-04-10T03:16:00.920Z,5.3
2017-04-10T03:16:19.556Z,5.3
2017-04-10T03:16:38.216Z,5.3
2017-04-10T03:16:56.848Z,5.3
2017-04-10T03:17:15.486Z,5.3
2017-04-10T03:17:34.124Z,5.3
2017-04-10T03:17:52.762Z,5.3
2017-04-10T03:18:11.395Z,5.4
2017-04-10T03:18:30.029Z,5.3
2017-04-10T03:18:48.667Z,5.4
2017-04-10T03:19:07.300Z,5.4
2017-04-10T03:19:25.935Z,5.3
2017-04-10T03:19:44.564Z,5.3
2017-04-10T03:20:03.227Z,5.4
2017-04-10T03:20:21.861Z,5.4
2017-04-10T03:20:40.496Z,5.4
2017-04-10T03:20:59.134Z,5.4
2017-04-10T03:21:17.761Z,5.4
2017-04-10T03:21:36.391Z,5.4
2017-04-10T03:21:55.018Z,5.4
2017-04-10T03:22:13.643Z,5.5
2017-04-10T03:22:32.278Z,5.5
2017-04-10T03:22:50.912Z,5.5
2017-04-10T03:23:09.547Z,5.5
2017-04-10T03:23:28.214Z,5.5
2017-04-10T03:23:46.847Z,5.5
2017-04-10T03:24:05.518Z,5.5
2017-04-10T03:24:24.150Z,5.5
2017-04-10T03:24:42.802Z,5.5
2017-04-10T03:25:01.436Z,5.5
2017-04-10T03:25:20.076Z,5.5
2017-04-10T03:25:38.711Z,5.5
2017-04-10T03:25:57.351Z,5.5
2017-04-10T03:26:15.985Z,5.5
2017-04-10T03:26:34.626Z,5.5
2017-04-10T03:26:53.260Z,5.5
2017-04-10T03:27:11.892Z,5.5
2017-04-10T03:27:30.524Z,5.5
2017-04-10T03:27:49.154Z,5.5
2017-04-10T03:28:07.788Z,5.5
2017-04-10T03:28:26.428Z,5.4
2017-04-10T03:28:45.060Z,5.4
2017-04-10T03:29:03.696Z,5.4
2017-04-10T03:29:22.346Z,5.4
2017-04-10T03:29:40.972Z,5.4
2017-04-10T03:29:59.623Z,5.4
2017-04-10T03:30:18.257Z,5.4
2017-04-10T03:30:36.887Z,5.5
2017-04-10T03:30:55.515Z,5.5
2017-04-10T03:31:14.146Z,5.5
2017-04-10T03:31:32.785Z,5.5
2017-04-10T03:31:51.418Z,5.6
2017-04-10T03:32:10.046Z,5.6
2017-04-10T03:32:28.677Z,5.6
2017-04-10T03:32:47.313Z,5.6
2017-04-10T03:33:05.954Z,5.6
2017-04-10T03:33:24.600Z,5.6
2017-04-10T03:33:43.232Z,5.6
2017-04-10T03:34:01.864Z,5.6
2017-04-10T03:34:20.489Z,5.6
2017-04-10T03:34:39.148Z,5.6
2017-04-10T03:34:57.776Z,5.5
2017-04-10T03:35:16.407Z,5.5
2017-04-10T03:35:35.039Z,5.4
2017-04-10T03:35:53.671Z,5.4
2017-04-10T03:36:12.305Z,5.3
2017-04-10T03:36:30.936Z,5.3
2017-04-10T03:36:49.583Z,5.3
2017-04-10T03:37:08.220Z,5.2
2017-04-10T03:37:26.853Z,5.2
2017-04-10T03:37:45.484Z,5.1
2017-04-10T03:38:04.114Z,5.1
2017-04-10T03:38:22.750Z,5.1
2017-04-10T03:38:41.381Z,5.1
2017-04-10T03:39:00.011Z,5.1
2017-04-10T03:39:18.648Z,5.1
2017-04-10T03:39:37.281Z,5
2017-04-10T03:39:55.940Z,5
2017-04-10T03:40:14.591Z,5
2017-04-10T03:40:33.220Z,5
2017-04-10T03:40:51.856Z,5
2017-04-10T03:41:10.486Z,5
2017-04-10T03:41:29.119Z,4.9
2017-04-10T03:41:47.747Z,5
2017-04-10T03:42:06.374Z,5
2017-04-10T03:42:25.003Z,5.1
2017-04-10T03:42:43.631Z,5.1
2017-04-10T03:43:02.267Z,5.2
2017-04-10T03:43:20.901Z,5.2
2017-04-10T03:43:39.540Z,5.2
2017-04-10T03:43:58.176Z,5.2
2017-04-10T03:44:16.808Z,5.3
2017-04-10T03:44:35.444Z,5.3
2017-04-10T03:44:54.079Z,5.4
2017-04-10T03:45:12.746Z,5.4
2017-04-10T03:45:31.378Z,5.4
2017-04-10T03:45:50.007Z,5.5
2017-04-10T03:46:08.638Z,5.5
2017-04-10T03:46:27.267Z,5.5
2017-04-10T03:46:45.897Z,5.5
2017-04-10T03:47:04.538Z,5.5
2017-04-10T03:47:23.179Z,5.5
2017-04-10T03:47:41.806Z,5.5
2017-04-10T03:48:00.438Z,5.5
2017-04-10T03:48:19.068Z,5.5
2017-04-10T03:48:37.697Z,5.5
2017-04-10T03:48:56.330Z,5.5
2017-04-10T03:49:14.965Z,5.6
2017-04-10T03:49:33.592Z,5.6
2017-04-10T03:49:52.222Z,5.6
2017-04-10T03:50:10.854Z,5.6
2017-04-10T03:50:29.513Z,5.6
2017-04-10T03:50:48.149Z,5.6
2017-04-10T03:51:06.778Z,5.6
2017-04-10T03:51:25.404Z,5.6
2017-04-10T03:51:44.032Z,5.6
2017-04-10T03:52:02.668Z,5.6
2017-04-10T03:52:21.299Z,5.6
2017-04-10T03:52:39.929Z,5.6
2017-04-10T03:52:58.559Z,5.6
2017-04-10T03:53:17.198Z,5.7
2017-04-10T03:53:35.845Z,5.7
2017-04-10T03:53:54.489Z,5.7
2017-04-10T03:54:13.144Z,5.7
2017-04-10T03:54:31.777Z,5.7
2017-04-10T03:54:50.406Z,5.7
2017-04-10T03:55:09.056Z,5.7
2017-04-10T03:55:27.685Z,5.7
2017-04-10T03:55:46.340Z,5.7
2017-04-10T03:56:04.971Z,5.7
2017-04-10T03:56:23.603Z,5.7
2017-04-10T03:56:42.242Z,5.8
2017-04-10T03:57:00.868Z,5.8
2017-04-10T03:57:19.508Z,5.8
2017-04-10T03:57:38.138Z,5.8
2017-04-10T03:57:56.766Z,5.8
2017-04-10T03:58:15.395Z,5.8
2017-04-10T03:58:34.033Z,5.9
2017-04-10T03:58:52.668Z,5.8
2017-04-10T03:59:11.302Z,5.8
2017-04-10T03:59:29.933Z,5.8
2017-04-10T03:59:48.567Z,5.9
2017-04-10T04:00:07.202Z,5.9
2017-04-10T04:00:25.837Z,5.9
2017-04-10T04:00:44.482Z,6
2017-04-10T04:01:03.122Z,6
2017-04-10T04:01:21.758Z,6
2017-04-10T04:01:40.390Z,6
2017-04-10T04:01:59.024Z,6
2017-04-10T04:02:17.655Z,6
2017-04-10T04:02:36.288Z,6
2017-04-10T04:02:54.919Z,5.9
2017-04-10T04:03:13.552Z,6
2017-04-10T04:03:32.180Z,6
2017-04-10T04:03:50.809Z,6.1
2017-04-10T04:04:09.453Z,6.1
2017-04-10T04:04:28.100Z,6.1
2017-04-10T04:04:46.737Z,6.1
2017-04-10T04:05:05.367Z,6.1
2017-04-10T04:05:23.999Z,6
2017-04-10T04:05:42.637Z,6
2017-04-10T04:06:01.267Z,6
2017-04-10T04:06:19.927Z,6
2017-04-10T04:06:38.557Z,6
2017-04-10T04:06:57.187Z,6
2017-04-10T04:07:15.815Z,6
2017-04-10T04:07:34.463Z,6.1
2017-04-10T04:07:53.100Z,6.1
2017-04-10T04:08:11.736Z,6.2
2017-04-10T04:08:30.368Z,6.2
2017-04-10T04:08:48.996Z,6.2
2017-04-10T04:09:07.625Z,6.2
2017-04-10T04:09:26.253Z,6.2
2017-04-10T04:09:44.887Z,6.2
2017-04-10T04:10:03.518Z,6.2
2017-04-10T04:10:22.158Z,6.1
2017-04-10T04:10:40.793Z,6.2
2017-04-10T04:10:59.442Z,6.2
2017-04-10T04:11:18.082Z,6.2
2017-04-10T04:11:36.731Z,6.2
2017-04-10T04:11:55.361Z,6.2
2017-04-10T04:12:13.987Z,6.2
2017-04-10T04:12:32.617Z,6.2
2017-04-10T04:12:51.247Z,6.2
2017-04-10T04:13:09.879Z,6.2
2017-04-10T04:13:28.509Z,6.2
2017-04-10T04:13:47.144Z,6.2
2017-04-10T04:14:05.782Z,6.3
2017-04-10T04:14:24.429Z,6.4
2017-04-10T04:14:43.059Z,6.4
2017-04-10T04:15:01.686Z,6.4
2017-04-10T04:15:20.321Z,6.4
2017-04-10T04:15:38.953Z,6.4
2017-04-10T04:15:57.586Z,6.3
2017-04-10T04:16:16.225Z,6.3
2017-04-10T04:16:34.858Z,6.3
2017-04-10T04:16:53.515Z,6.2
2017-04-10T04:17:12.146Z,6.2
2017-04-10T04:17:30.777Z,6.1
2017-04-10T04:17:49.421Z,6.1